Time;durP1;ratioP1;P1;durP2;ratioP2;P2;SDS_P1;SDS_P2;PMS_P1;PMS_P2;Temp;Humidity;BMP_temperature;BMP_pressure;BME280_temperature;BME280_humidity;BME280_pressure;Samples;Min_cycle;Max_cycle;Signal;HPM_P1;HPM_P2
2022/07/15 00:01:04;;;;;;;7.93;1.60;;;;;;;-146.64;100.00;38220.50;5104155;28;20044;-75
2022/07/15 00:03:30;;;;;;;10.53;2.73;;;;;;;-146.64;100.00;38240.97;5109374;28;20031;-74
2022/07/15 00:05:55;;;;;;;5.63;1.70;;;;;;;-146.64;100.00;38330.97;5092545;28;20445;-73
2022/07/15 00:08:20;;;;;;;7.40;1.40;;;;;;;-146.64;100.00;38306.44;5091257;28;20031;-74
2022/07/15 00:10:46;;;;;;;10.47;1.87;;;;;;;-146.64;100.00;38326.88;5092099;28;20112;-74
2022/07/15 00:13:11;;;;;;;6.83;2.00;;;;;;;-146.64;100.00;38441.47;5091380;28;20031;-75
2022/07/15 00:15:36;;;;;;;11.73;1.80;;;;;;;-146.64;100.00;38457.84;5075027;28;20122;-74
2022/07/15 00:18:03;;;;;;;10.40;1.60;;;;;;;-146.64;100.00;38582.66;5092512;28;20034;-75
2022/07/15 00:20:33;;;;;;;9.70;1.98;;;;;;;-146.64;100.00;38541.75;5076685;28;20483;-74
2022/07/15 00:23:03;;;;;;;6.20;1.77;;;;;;;-146.64;100.00;38654.28;5074938;28;20040;-73
2022/07/15 00:25:28;;;;;;;11.30;2.15;;;;;;;-146.64;100.00;38578.56;5085363;28;20019;-74
2022/07/15 00:27:57;;;;;;;10.27;1.67;;;;;;;-146.64;100.00;38793.44;5111000;28;20475;-74
2022/07/15 00:30:24;;;;;;;16.17;2.10;;;;;;;-146.64;100.00;39047.19;5087112;28;20050;-76
2022/07/15 00:32:50;;;;;;;6.88;1.42;;;;;;;-146.64;100.00;39039.00;5091314;28;20034;-76
2022/07/15 00:35:15;;;;;;;8.32;1.70;;;;;;;-146.64;100.00;39237.50;5092424;28;20031;-76
2022/07/15 00:37:41;;;;;;;8.07;1.50;;;;;;;-146.64;100.00;39245.69;5103602;28;20034;-75
2022/07/15 00:40:07;;;;;;;8.97;1.93;;;;;;;-146.64;100.00;39491.28;5109408;28;20126;-74
2022/07/15 00:42:44;;;;;;;10.57;2.03;;;;;;;-146.64;100.00;39769.66;5110396;28;20037;-75
2022/07/15 00:45:15;;;;;;;9.00;1.90;;;;;;;-146.64;100.00;39198.63;5092146;28;20042;-75
2022/07/15 00:47:45;;;;;;;10.43;1.63;;;;;;;-146.64;100.00;40082.81;5090530;28;20087;-75
2022/07/15 00:50:11;;;;;;;5.78;1.42;;;;;;;-146.64;100.00;39235.47;5075496;28;20512;-75
2022/07/15 00:52:41;;;;;;;8.15;1.95;;;;;;;-146.64;100.00;40668.31;5091273;28;20368;-74
2022/07/15 00:55:10;;;;;;;8.90;2.17;;;;;;;-146.64;100.00;39751.22;5091533;28;20027;-75
2022/07/15 00:57:37;;;;;;;7.93;1.65;;;;;;;-146.64;100.00;40533.19;5109372;28;20028;-74
2022/07/15 01:00:04;;;;;;;2.40;1.27;;;;;;;-146.64;100.00;39249.78;5110132;28;20050;-75
2022/07/15 01:02:30;;;;;;;7.80;1.40;;;;;;;-146.64;100.00;39603.84;5109486;28;20080;-74
2022/07/15 01:04:56;;;;;;;5.00;1.30;;;;;;;-146.64;100.00;39612.03;5092068;28;20020;-76
2022/07/15 01:07:22;;;;;;;6.00;1.58;;;;;;;-146.64;100.00;38940.75;5090739;28;20038;-75
2022/07/15 01:09:48;;;;;;;5.63;1.40;;;;;;;-146.64;100.00;39792.16;5108587;28;20478;-74
2022/07/15 01:12:13;;;;;;;10.63;1.70;;;;;;;-146.64;100.00;39886.31;5091028;28;20494;-74
2022/07/15 01:14:38;;;;;;;15.70;2.80;;;;;;;-146.64;100.00;39900.66;5092063;28;20364;-74
2022/07/15 01:17:09;;;;;;;7.90;1.73;;;;;;;-146.64;100.00;39407.38;5092111;28;20019;-74
2022/07/15 01:19:34;;;;;;;8.82;1.80;;;;;;;-146.64;100.00;39800.34;5106062;28;20162;-75
2022/07/15 01:21:59;;;;;;;13.63;2.03;;;;;;;-146.64;100.00;39511.75;5108761;28;20492;-75
2022/07/15 01:24:25;;;;;;;5.87;1.50;;;;;;;-146.64;100.00;40541.38;5108682;28;20513;-74
2022/07/15 01:26:50;;;;;;;7.83;2.30;;;;;;;-146.64;100.00;39831.06;5109292;28;20168;-74
2022/07/15 01:29:15;;;;;;;8.40;2.17;;;;;;;-146.64;100.00;39581.34;5075034;28;20039;-75
2022/07/15 01:31:41;;;;;;;15.77;1.93;;;;;;;-146.64;100.00;39436.03;5108905;28;20042;-74
2022/07/15 01:34:06;;;;;;;6.53;1.53;;;;;;;-146.64;100.00;39669.34;5093336;28;20085;-75
2022/07/15 01:36:32;;;;;;;8.97;1.50;;;;;;;-146.64;100.00;39839.25;5092268;28;20067;-74
2022/07/15 01:38:57;;;;;;;11.23;1.50;;;;;;;-146.64;100.00;39878.13;5110917;28;20080;-75
2022/07/15 01:41:22;;;;;;;6.23;2.00;;;;;;;-146.64;100.00;40377.59;5078360;28;20045;-75
2022/07/15 01:43:48;;;;;;;12.10;2.03;;;;;;;-146.64;100.00;40217.94;5093890;28;20100;-74
2022/07/15 01:46:13;;;;;;;10.23;1.30;;;;;;;-146.64;100.00;40449.25;5092911;28;20027;-75
2022/07/15 01:51:23;;;;;;;8.23;1.45;;;;;;;-146.64;100.00;40940.59;5102598;28;20089;-74
2022/07/15 01:53:48;;;;;;;8.03;1.27;;;;;;;-146.64;100.00;41659.31;5086884;28;20422;-75
2022/07/15 01:56:14;;;;;;;6.47;1.63;;;;;;;-146.64;100.00;41208.84;5074963;28;20059;-75
2022/07/15 01:58:39;;;;;;;4.83;1.37;;;;;;;-146.64;100.00;43025.47;5087470;28;20028;-76
2022/07/15 02:01:05;;;;;;;10.53;1.63;;;;;;;-146.64;100.00;44285.50;5072400;28;20067;-75
2022/07/15 02:03:31;;;;;;;5.95;1.50;;;;;;;-146.64;100.00;45802.19;5087843;28;20028;-74
2022/07/15 02:05:56;;;;;;;9.67;3.03;;;;;;;-146.64;100.00;43451.56;5074524;28;20043;-75
2022/07/15 02:08:22;;;;;;;4.60;1.70;;;;;;;-146.64;100.00;48264.97;5088360;28;20042;-75
2022/07/15 02:10:47;;;;;;;6.33;1.90;;;;;;;-146.64;100.00;50290.09;5093463;28;20028;-73
2022/07/15 02:13:13;;;;;;;4.87;1.63;;;;;;;-146.64;100.00;46796.56;5112222;28;20077;-75
2022/07/15 02:15:39;;;;;;;10.67;1.63;;;;;;;-146.64;100.00;53990.06;5077945;28;20435;-76
2022/07/15 02:18:06;;;;;;;9.00;1.40;;;;;;;-146.64;100.00;52938.44;5083596;28;20028;-75
2022/07/15 02:20:32;;;;;;;8.60;1.58;;;;;;;-146.64;100.00;48094.72;5058467;28;20491;-75
2022/07/15 02:22:57;;;;;;;10.10;1.40;;;;;;;-146.64;100.00;51388.22;5086402;28;20032;-75
2022/07/15 02:25:27;;;;;;;6.43;1.40;;;;;;;-146.64;100.00;55041.97;5093733;28;20155;-75
2022/07/15 02:27:58;;;;;;;8.15;2.20;;;;;;;-146.64;100.00;61095.81;5087081;28;20487;-75
2022/07/15 02:30:35;;;;;;;9.73;1.40;;;;;;;-146.64;100.00;56620.34;5076561;28;20037;-75
2022/07/15 02:33:02;;;;;;;5.88;1.60;;;;;;;-146.64;100.00;62413.09;5086555;28;20042;-75
2022/07/15 02:35:28;;;;;;;7.45;1.27;;;;;;;-146.64;100.00;64785.31;5092886;28;20421;-75
2022/07/15 02:37:53;;;;;;;6.97;1.90;;;;;;;-146.64;100.00;60832.41;5090811;28;20406;-75
2022/07/15 02:40:19;;;;;;;7.90;1.60;;;;;;;-146.64;100.00;61622.69;5096206;28;20038;-75
2022/07/15 02:42:52;;;;;;;7.20;1.47;;;;;;;-146.64;100.00;63203.69;5093798;28;20395;-75
2022/07/15 02:45:19;;;;;;;8.85;1.55;;;;;;;-146.64;100.00;62149.59;5076855;28;20027;-76
2022/07/15 02:47:44;;;;;;;5.93;1.70;;;;;;;-146.64;100.00;60832.41;5092519;28;20015;-75
2022/07/15 02:50:10;;;;;;;6.77;2.07;;;;;;;-146.64;100.00;65576.34;5072022;28;20509;-75
2022/07/15 02:52:35;;;;;;;7.47;2.00;;;;;;;-146.64;100.00;70854.00;5092782;28;20034;-75
2022/07/15 02:55:01;;;;;;;10.87;2.23;;;;;;;-146.64;100.00;70061.91;5093875;28;20816;-75
2022/07/15 02:57:27;;;;;;;12.40;1.83;;;;;;;-146.64;100.00;69533.94;5092780;28;20033;-76
2022/07/15 02:59:52;;;;;;;8.55;1.55;;;;;;;-146.64;100.00;70325.94;5112058;28;20471;-75
2022/07/15 03:02:18;;;;;;;9.70;1.90;;;;;;;-146.64;100.00;70854.00;5072577;28;20110;-75
2022/07/15 03:04:44;;;;;;;8.90;2.07;;;;;;;-146.64;100.00;73759.69;5093117;28;20059;-75
2022/07/15 03:07:10;;;;;;;5.73;1.13;;;;;;;-146.64;100.00;78519.03;5092194;28;20462;-75
2022/07/15 03:09:37;;;;;;;7.20;1.77;;;;;;;-146.64;100.00;80371.41;5112804;28;20042;-75
2022/07/15 03:12:02;;;;;;;7.13;1.70;;;;;;;-146.64;100.00;81165.53;5107616;28;20355;-75
2022/07/15 03:14:28;;;;;;;6.37;1.53;;;;;;;-146.64;100.00;82224.63;5090309;28;20034;-75
2022/07/15 03:16:53;;;;;;;8.67;1.73;;;;;;;-146.64;100.00;82224.63;5089697;28;20061;-74
2022/07/15 03:19:21;;;;;;;5.60;1.30;;;;;;;-146.64;100.00;83019.13;5110659;28;20485;-75
2022/07/15 03:21:50;;;;;;;7.82;1.20;;;;;;;-146.64;100.00;87789.44;5111088;28;20456;-73
2022/07/15 03:24:16;;;;;;;5.82;1.40;;;;;;;-146.64;100.00;88319.81;5091920;28;20042;-74
2022/07/15 03:26:41;;;;;;;7.17;1.37;;;;;;;-146.64;100.00;89911.41;5076324;28;20040;-74
2022/07/15 03:29:07;;;;;;;6.47;1.33;;;;;;;-146.64;100.00;91503.59;5093748;28;20055;-76
2022/07/15 03:31:32;;;;;;;7.23;1.40;;;;;;;-146.64;100.00;90707.41;5070317;28;20031;-75
2022/07/15 03:33:57;;;;;;;10.53;1.60;;;;;;;-146.64;100.00;93096.44;5091393;28;20036;-73
2022/07/15 03:36:24;;;;;;;2.87;1.23;;;;;;;-146.64;100.00;94689.88;5111347;28;20035;-75
2022/07/15 03:38:51;;;;;;;6.63;1.40;;;;;;;-146.64;100.00;92299.94;5089713;28;20036;-75
2022/07/15 03:41:17;;;;;;;10.10;1.67;;;;;;;-146.64;100.00;92034.47;5076660;28;20043;-74
2022/07/15 03:43:43;;;;;;;8.18;1.85;;;;;;;-146.64;100.00;89646.09;5070370;28;20391;-75
2022/07/15 03:46:08;;;;;;;3.73;1.27;;;;;;;-146.64;100.00;89646.09;5087787;28;20050;-76
2022/07/15 03:48:33;;;;;;;4.83;1.80;;;;;;;-146.64;100.00;87789.44;5073534;28;20030;-75
2022/07/15 03:50:59;;;;;;;6.43;1.50;;;;;;;-146.64;100.00;85138.56;5091645;28;20057;-80
2022/07/15 03:53:24;;;;;;;4.90;1.63;;;;;;;-146.64;100.00;87789.44;5072066;28;20031;-80
2022/07/15 03:55:49;;;;;;;9.80;2.03;;;;;;;-146.64;100.00;89911.41;5084208;28;20500;-79
2022/07/15 03:58:15;;;;;;;10.67;1.70;;;;;;;-146.64;100.00;92034.47;5073970;28;20072;-81
2022/07/15 04:00:41;;;;;;;13.70;1.30;;;;;;;-146.64;100.00;90972.78;5103987;28;20024;-81
2022/07/15 04:03:06;;;;;;;9.40;2.00;;;;;;;-146.64;100.00;88319.81;5086010;28;20036;-79
2022/07/15 04:05:33;;;;;;;9.07;1.50;;;;;;;-146.64;100.00;87259.13;5090280;28;20039;-78
2022/07/15 04:07:58;;;;;;;4.05;1.58;;;;;;;-146.64;100.00;87789.44;5102914;28;20023;-81
2022/07/15 04:10:23;;;;;;;12.00;1.83;;;;;;;-146.64;100.00;88585.03;5087463;28;20502;-81
2022/07/15 04:12:50;;;;;;;9.17;1.80;;;;;;;-146.64;100.00;87789.44;5078385;28;20007;-80
2022/07/15 04:15:15;;;;;;;5.93;1.73;;;;;;;-146.64;100.00;88319.81;5088048;28;20032;-80
2022/07/15 04:17:41;;;;;;;8.00;1.40;;;;;;;-146.64;100.00;88319.81;5090670;28;20475;-82
2022/07/15 04:20:08;;;;;;;7.73;1.57;;;;;;;-146.64;100.00;90707.41;5105994;28;20502;-82
2022/07/15 04:22:41;;;;;;;11.38;1.73;;;;;;;-146.64;100.00;88850.28;5087865;28;20028;-82
2022/07/15 04:25:11;;;;;;;6.57;1.55;;;;;;;-146.64;100.00;91238.19;5098782;28;20035;-82
2022/07/15 04:27:37;;;;;;;6.70;1.30;;;;;;;-146.64;100.00;89115.53;5094791;28;20387;-81
2022/07/15 04:30:06;;;;;;;5.43;1.73;;;;;;;-146.64;100.00;92830.91;5076836;28;20042;-78
2022/07/15 04:32:31;;;;;;;7.40;1.35;;;;;;;-146.64;100.00;91238.19;5092129;28;20038;-79
2022/07/15 04:34:57;;;;;;;6.77;1.50;;;;;;;-146.64;100.00;89911.41;5082707;28;20040;-80
2022/07/15 04:37:22;;;;;;;9.97;1.67;;;;;;;-146.64;100.00;87524.28;5111721;28;20433;-80
2022/07/15 04:39:48;;;;;;;2.57;1.10;;;;;;;-146.64;100.00;84608.59;5093792;28;20087;-81
2022/07/15 04:42:14;;;;;;;5.68;1.50;;;;;;;-146.64;100.00;83019.13;5088873;28;20028;-79
2022/07/15 04:44:39;;;;;;;4.47;1.23;;;;;;;-146.64;100.00;79842.06;5106474;28;20157;-81
2022/07/15 04:47:05;;;;;;;5.90;1.30;;;;;;;-146.64;100.00;77460.91;5076179;28;20050;-81
2022/07/15 04:52:15;;;;;;;8.88;1.58;;;;;;;-146.64;100.00;71382.16;5078016;28;20086;-81
2022/07/15 04:54:40;;;;;;;5.05;1.13;;;;;;;-146.64;100.00;66367.56;5111770;28;20031;-82
2022/07/15 04:57:05;;;;;;;5.23;1.70;;;;;;;-146.64;100.00;59778.97;5087308;28;20071;-79
2022/07/15 04:59:32;;;;;;;6.53;1.17;;;;;;;-146.64;100.00;46950.34;5079829;28;20032;-79
2022/07/15 05:01:58;;;;;;;;;;;;;;;-146.64;100.00;41933.75;5098585;28;20032;-78
2022/07/15 05:04:23;;;;;;;5.70;1.27;;;;;;;-146.64;100.00;43220.06;5089584;28;19956;-77
2022/07/15 05:06:48;;;;;;;2.60;0.97;;;;;;;-146.64;100.00;41438.16;5097477;28;20075;-78
2022/07/15 05:09:13;;;;;;;4.03;1.20;;;;;;;-146.64;100.00;38850.72;5109104;28;20032;-80
2022/07/15 05:11:39;;;;;;;5.57;1.50;;;;;;;-146.64;100.00;37651.75;5090104;28;20386;-79
2022/07/15 05:14:05;;;;;;;3.50;1.27;;;;;;;-146.64;100.00;37303.97;5082711;28;20019;-78
2022/07/15 05:16:31;;;;;;;4.53;1.10;;;;;;;-146.64;100.00;37537.19;5111230;28;20028;-78
2022/07/15 05:18:58;;;;;;;7.10;1.00;;;;;;;-146.64;100.00;37856.31;5095315;28;20032;-78
2022/07/15 05:21:23;;;;;;;7.20;1.55;;;;;;;-146.64;100.00;37831.78;5101820;28;20065;-77
2022/07/15 05:23:48;;;;;;;4.60;1.50;;;;;;;-146.64;100.00;37594.47;5096232;28;20028;-77
2022/07/15 05:26:14;;;;;;;8.93;0.90;;;;;;;-146.64;100.00;37506.50;5124908;28;20054;-81
2022/07/15 05:28:40;;;;;;;4.63;1.00;;;;;;;-146.64;100.00;37635.38;5113805;28;20027;-79
2022/07/15 05:31:06;;;;;;;6.20;1.20;;;;;;;-146.64;100.00;37758.13;5097551;28;20027;-78
2022/07/15 05:33:31;;;;;;;6.37;1.07;;;;;;;-146.64;99.23;37823.59;5084869;28;20032;-77
2022/07/15 05:35:57;;;;;;;5.70;1.40;;;;;;;-146.64;95.17;37766.31;5110285;28;20043;-78
2022/07/15 05:38:48;;;;;;;5.88;1.13;;;;;;;-146.64;88.45;37436.94;5137392;27;20362;-78
2022/07/15 05:41:13;;;;;;;7.03;1.17;;;;;;;-146.64;87.01;37504.44;5104593;28;20418;-79
2022/07/15 05:43:42;;;;;;;7.90;1.10;;;;;;;-146.64;85.28;37463.53;5091168;27;20038;-78
2022/07/15 05:46:07;;;;;;;4.85;1.20;;;;;;;-146.64;83.23;37281.47;5099321;27;20035;-77
2022/07/15 05:48:33;;;;;;;7.63;1.60;;;;;;;-146.64;85.64;37569.91;5097903;28;20059;-78
2022/07/15 05:50:58;;;;;;;6.60;1.23;;;;;;;-146.64;86.40;37479.91;5087672;28;20023;-76
2022/07/15 05:53:24;;;;;;;7.13;1.33;;;;;;;-146.64;79.60;37205.78;5101465;28;20501;-75
2022/07/15 05:55:49;;;;;;;5.20;1.20;;;;;;;-146.64;79.09;37195.56;5102274;28;20058;-75
2022/07/15 05:58:14;;;;;;;4.17;0.80;;;;;;;-146.64;78.40;37234.44;5088401;27;20031;-75
2022/07/15 06:00:40;;;;;;;6.33;1.07;;;;;;;-146.64;76.25;37218.06;5100503;28;20365;-77
2022/07/15 06:03:06;;;;;;;5.28;1.27;;;;;;;-146.64;74.45;36991.03;5078357;28;20355;-77
2022/07/15 06:05:31;;;;;;;4.55;1.38;;;;;;;-146.64;70.08;36888.75;5084805;28;20255;-76
2022/07/15 06:07:57;;;;;;;6.05;1.20;;;;;;;-146.64;71.15;37103.53;5085279;27;20034;-76
2022/07/15 06:10:22;;;;;;;4.75;1.05;;;;;;;-146.64;73.65;37222.16;5104064;28;20030;-76
2022/07/15 06:12:48;;;;;;;3.70;1.17;;;;;;;-146.64;69.29;36929.66;5101389;28;20054;-76
2022/07/15 06:15:14;;;;;;;6.88;1.50;;;;;;;-146.64;69.98;37021.72;5107076;28;20490;-75
2022/07/15 06:17:39;;;;;;;6.20;1.13;;;;;;;-146.64;71.41;37242.63;5104369;28;20106;-75
2022/07/15 06:20:06;;;;;;;5.07;1.10;;;;;;;-146.64;72.00;37107.63;5085532;28;20115;-76
2022/07/15 06:22:31;;;;;;;7.40;0.98;;;;;;;-146.64;70.72;37007.38;5108752;28;20020;-77
2022/07/15 06:24:57;;;;;;;5.07;1.60;;;;;;;-146.64;71.88;37164.88;5121671;27;20394;-77
2022/07/15 06:27:22;;;;;;;3.73;0.93;;;;;;;-146.64;69.38;36988.97;5088828;28;20031;-76
2022/07/15 06:29:50;;;;;;;4.78;1.20;;;;;;;-146.64;74.33;37089.22;5091557;28;20077;-77
2022/07/15 06:32:15;;;;;;;7.40;1.10;;;;;;;-146.64;69.11;36931.72;5089969;28;20030;-75
2022/07/15 06:34:42;;;;;;;4.65;1.00;;;;;;;-146.64;64.63;36890.81;5091413;28;20031;-75
2022/07/15 06:37:07;;;;;;;6.28;1.27;;;;;;;-146.64;65.93;36968.53;5083965;28;20093;-76
2022/07/15 06:39:33;;;;;;;14.05;1.27;;;;;;;-146.64;66.67;36890.81;5107004;27;20027;-76
2022/07/15 06:41:59;;;;;;;5.53;1.10;;;;;;;-146.64;66.54;37003.28;5086790;28;20426;-76
2022/07/15 06:44:25;;;;;;;6.30;1.00;;;;;;;-146.64;66.15;36962.38;5106462;27;20031;-75
2022/07/15 06:46:50;;;;;;;4.80;1.37;;;;;;;-146.64;63.81;36856.03;5120531;27;20110;-79
2022/07/15 06:49:15;;;;;;;3.53;1.00;;;;;;;-146.64;62.78;36821.25;5091465;28;20054;-78
2022/07/15 06:51:41;;;;;;;4.23;1.00;;;;;;;-146.64;61.20;36641.28;5107290;28;20091;-77
2022/07/15 06:54:07;;;;;;;4.00;1.10;;;;;;;-146.64;60.82;36571.75;5088347;28;20367;-78
2022/07/15 06:56:33;;;;;;;3.80;0.98;;;;;;;-146.64;63.01;36851.94;5110230;28;20042;-77
2022/07/15 06:58:58;;;;;;;5.85;1.02;;;;;;;-146.64;63.04;36811.03;5063568;28;20027;-79
2022/07/15 07:01:23;;;;;;;5.00;1.10;;;;;;;-146.64;62.89;36702.63;5070006;28;20038;-77
2022/07/15 07:03:49;;;;;;;3.40;1.00;;;;;;;-146.64;59.68;36489.94;5113088;28;20028;-78
2022/07/15 07:06:14;;;;;;;6.07;0.90;;;;;;;-146.64;59.28;36731.28;5096326;28;20027;-78
2022/07/15 07:08:40;;;;;;;5.03;1.00;;;;;;;-146.64;58.95;36704.69;5078970;28;20071;-78
2022/07/15 07:11:05;;;;;;;3.08;0.73;;;;;;;-146.64;57.59;36629.00;5111693;28;20032;-78
2022/07/15 07:13:31;;;;;;;5.10;1.30;;;;;;;-146.64;59.44;36698.53;5114702;28;20034;-78
2022/07/15 07:15:56;;;;;;;1.90;0.83;;;;;;;-146.64;56.00;36571.75;5094131;28;20028;-79
2022/07/15 07:18:21;;;;;;;2.53;0.90;;;;;;;-146.64;55.95;36520.63;5113985;28;20032;-78
2022/07/15 07:20:47;;;;;;;6.43;1.00;;;;;;;-146.64;58.81;36894.91;5114256;28;20019;-78
2022/07/15 07:23:12;;;;;;;5.20;0.93;;;;;;;-146.64;60.50;37052.38;5110831;28;20489;-79
2022/07/15 07:25:41;;;;;;;2.33;0.70;;;;;;;-146.64;63.47;37220.13;5085557;28;20023;-78
2022/07/15 07:28:06;;;;;;;3.08;1.00;;;;;;;-146.64;64.08;37213.97;5109062;28;20918;-79
2022/07/15 07:30:32;;;;;;;2.17;0.90;;;;;;;-146.64;64.86;37258.97;5127007;28;20091;-78
2022/07/15 07:32:58;;;;;;;2.92;0.93;;;;;;;-146.64;68.08;37342.84;5101717;28;20024;-80
2022/07/15 07:35:23;;;;;;;4.00;1.00;;;;;;;-146.64;67.76;37426.72;5090746;28;20031;-77
2022/07/15 07:37:49;;;;;;;4.47;1.00;;;;;;;-146.64;68.75;37545.38;5094403;28;20035;-79
2022/07/15 07:40:16;;;;;;;1.92;1.13;;;;;;;-146.64;69.75;37510.59;5084407;28;20147;-78
2022/07/15 07:42:44;;;;;;;6.20;1.63;;;;;;;-146.64;66.87;37346.94;5105179;28;20051;-78
2022/07/15 07:45:10;;;;;;;3.17;0.88;;;;;;;-146.64;66.64;37353.06;5085423;28;20524;-78
2022/07/15 07:47:39;;;;;;;5.10;1.20;;;;;;;-146.64;69.88;37541.28;5080077;28;20106;-78
2022/07/15 07:50:05;;;;;;;3.97;0.90;;;;;;;-146.64;69.79;37574.00;5086804;28;20113;-78
2022/07/15 07:52:31;;;;;;;4.57;1.20;;;;;;;-146.64;72.40;37657.88;5103584;28;20031;-78
2022/07/15 07:54:56;;;;;;;5.73;1.10;;;;;;;-146.64;72.03;37529.00;5101501;28;20139;-79
2022/07/15 07:57:21;;;;;;;3.43;1.07;;;;;;;-146.64;73.20;37365.34;5106639;28;20043;-80
2022/07/15 07:59:47;;;;;;;2.47;1.00;;;;;;;-146.64;68.86;37072.84;5081991;28;20059;-79
2022/07/15 08:02:12;;;;;;;6.53;1.83;;;;;;;-146.64;67.57;37306.03;5104929;28;20027;-78
2022/07/15 08:04:38;;;;;;;2.67;0.80;;;;;;;-146.64;67.06;37312.16;5094883;28;20102;-78
2022/07/15 08:07:06;;;;;;;2.47;1.10;;;;;;;-146.64;66.96;37344.91;5095454;28;20062;-77
2022/07/15 08:09:31;;;;;;;4.38;0.82;;;;;;;-146.64;68.67;37334.66;5081800;28;20024;-78
2022/07/15 08:11:56;;;;;;;9.10;1.10;;;;;;;-146.64;67.68;37379.66;5098921;28;20028;-78
2022/07/15 08:14:22;;;;;;;8.00;1.20;;;;;;;-146.64;67.81;37312.16;5100092;28;20026;-79
2022/07/15 08:16:47;;;;;;;3.07;0.80;;;;;;;-146.64;67.14;37234.44;5119660;28;20083;-79
2022/07/15 08:19:15;;;;;;;7.40;1.03;;;;;;;-146.64;66.81;37271.25;5093896;28;20059;-77
2022/07/15 08:21:41;;;;;;;8.73;1.08;;;;;;;-146.64;66.10;37361.25;5086921;28;20028;-78
2022/07/15 08:24:06;;;;;;;2.47;1.10;;;;;;;-146.64;66.19;37375.56;5102075;28;20058;-78
2022/07/15 08:26:32;;;;;;;3.43;1.10;;;;;;;-146.64;67.76;37332.63;5102363;28;20071;-79
2022/07/15 08:28:57;;;;;;;5.40;1.10;;;;;;;-146.64;66.63;37314.22;5103319;28;20023;-78
2022/07/15 08:31:23;;;;;;;4.87;0.70;;;;;;;-146.64;67.43;37263.06;5075749;28;20020;-77
2022/07/15 08:33:48;;;;;;;10.97;1.10;;;;;;;-146.64;65.75;37283.53;5109347;28;20064;-78
2022/07/15 08:36:13;;;;;;;5.07;0.93;;;;;;;-146.64;64.79;37391.94;5114650;28;20036;-76
2022/07/15 08:38:39;;;;;;;3.47;0.70;;;;;;;-146.64;63.27;37250.81;5103017;28;20016;-78
2022/07/15 08:41:04;;;;;;;2.50;1.10;;;;;;;-146.64;64.46;37076.94;5089886;28;20077;-78
2022/07/15 08:43:32;;;;;;;2.80;0.97;;;;;;;-146.64;60.21;37191.47;5111481;28;20023;-79
2022/07/15 08:45:57;;;;;;;8.30;0.80;;;;;;;-146.64;61.02;37038.06;5116253;28;20024;-80
2022/07/15 08:48:28;;;;;;;6.27;1.10;;;;;;;-146.64;59.36;37140.34;5105314;28;20034;-79
2022/07/15 08:50:54;;;;;;;3.35;0.82;;;;;;;-146.64;60.53;37029.88;5091353;28;20067;-80
2022/07/15 08:53:23;;;;;;;8.05;1.63;;;;;;;-146.64;59.76;36993.06;5094263;28;19999;-78
2022/07/15 08:55:48;;;;;;;7.70;1.20;;;;;;;-146.64;60.55;37344.91;5112994;28;20028;-78
2022/07/15 08:58:13;;;;;;;5.50;1.00;;;;;;;-146.64;62.12;37273.31;5103188;28;20038;-80
2022/07/15 09:00:39;;;;;;;3.70;1.03;;;;;;;-146.64;63.73;37514.69;5113198;28;20027;-80
2022/07/15 09:03:05;;;;;;;9.03;1.10;;;;;;;-146.64;64.09;37504.44;5120942;28;20027;-79
2022/07/15 09:05:34;;;;;;;5.30;0.80;;;;;;;-146.64;65.13;37477.84;5090318;28;20282;-77
2022/07/15 09:08:19;;;;;;;3.80;1.00;;;;;;;-146.64;64.46;37627.19;5106901;28;20023;-77
2022/07/15 09:10:51;;;;;;;6.95;1.00;;;;;;;-146.64;67.03;37666.06;5103134;28;20134;-78
2022/07/15 09:13:39;;;;;;;1.55;1.00;;;;;;;-146.64;66.54;37598.56;5109108;28;20023;-77
2022/07/15 09:16:10;;;;;;;4.60;1.00;;;;;;;-146.64;65.65;37512.63;5106713;28;20032;-78
2022/07/15 09:18:43;;;;;;;2.70;0.85;;;;;;;-146.64;66.41;37529.00;5086129;28;20062;-77
2022/07/15 09:21:19;;;;;;;8.63;1.25;;;;;;;-146.64;64.84;37416.50;5103632;28;20028;-77
2022/07/15 09:23:45;;;;;;;3.25;0.90;;;;;;;-146.64;62.41;37283.53;5095758;28;20024;-77
2022/07/15 09:26:32;;;;;;;1.98;1.02;;;;;;;-146.64;62.97;37058.53;5100901;28;20111;-77
2022/07/15 09:28:59;;;;;;;5.68;1.20;;;;;;;-146.64;60.91;37209.88;5090599;28;20402;-77
2022/07/15 09:33:34;;;;;;;7.63;1.48;;;;;;;-146.64;63.81;37400.13;5091318;28;20127;-78
2022/07/15 09:34:19;;;;;;;3.85;0.98;;;;;;;-146.64;63.31;37467.63;5103635;28;20456;-77
2022/07/15 09:36:53;;;;;;;4.75;0.80;;;;;;;-146.64;63.78;37469.69;5092902;28;20527;-77
2022/07/15 09:39:20;;;;;;;2.33;1.15;;;;;;;-146.64;62.12;37443.09;5093666;28;20048;-76
2022/07/15 09:41:46;;;;;;;3.50;1.20;;;;;;;-146.64;63.95;37520.81;5099439;28;20475;-77
2022/07/15 09:44:13;;;;;;;5.25;0.98;;;;;;;-146.64;66.25;37365.34;5081127;28;20035;-79
2022/07/15 09:46:47;;;;;;;7.03;1.33;;;;;;;-146.64;62.33;37295.81;5105645;28;20049;-77
2022/07/15 09:51:15;;;;;;;7.10;1.45;;;;;;;-146.64;60.85;37156.72;5130669;27;20386;-75
2022/07/15 09:53:41;;;;;;;4.68;1.65;;;;;;;-146.64;62.21;37348.97;5088603;28;20031;-74
2022/07/15 09:56:13;;;;;;;6.20;1.30;;;;;;;-146.64;63.20;37459.44;5122706;27;20035;-75
2022/07/15 09:58:41;;;;;;;2.38;0.98;;;;;;;-146.64;63.58;37561.72;5103632;28;20337;-75
2022/07/15 10:01:08;;;;;;;5.15;1.35;;;;;;;-146.64;64.75;37578.09;5104706;28;20042;-75
2022/07/15 10:03:34;;;;;;;2.25;1.33;;;;;;;-146.64;65.81;37619.00;5122757;27;20023;-75
2022/07/15 10:06:00;;;;;;;9.38;1.40;;;;;;;-146.64;63.52;37416.50;5118760;27;20498;-74
2022/07/15 10:08:26;;;;;;;5.18;1.10;;;;;;;-146.64;60.75;37248.75;5103371;27;20382;-74
2022/07/15 10:10:53;;;;;;;5.97;0.98;;;;;;;-146.64;59.03;36997.16;5103791;28;20041;-74
2022/07/15 10:13:37;;;;;;;3.13;0.80;;;;;;;-146.64;56.30;37211.94;5084690;28;20143;-74
2022/07/15 10:16:08;;;;;;;4.05;1.05;;;;;;;-146.64;58.57;37336.72;5119257;27;20087;-73
2022/07/15 10:18:33;;;;;;;2.47;0.80;;;;;;;-146.64;60.85;37406.25;5123230;27;20097;-74
2022/07/15 10:21:20;;;;;;;3.30;0.87;;;;;;;-146.64;59.15;37369.44;5122463;27;20027;-73
2022/07/15 10:23:53;;;;;;;4.22;0.98;;;;;;;-146.64;58.41;37033.97;5118309;27;20019;-75
2022/07/15 10:26:51;;;;;;;6.45;1.35;;;;;;;-146.64;59.26;37271.25;5096956;28;20042;-74
2022/07/15 10:29:16;;;;;;;2.55;1.00;;;;;;;-146.64;56.71;37479.91;5057318;28;20511;-76
2022/07/15 10:31:43;;;;;;;4.63;0.87;;;;;;;-146.64;58.43;37467.63;5080459;28;20035;-73
2022/07/15 10:34:12;;;;;;;2.08;0.80;;;;;;;-146.64;59.41;37500.34;5072836;28;20091;-74
2022/07/15 10:36:46;;;;;;;3.22;1.08;;;;;;;-146.64;60.25;37582.19;5073860;28;20084;-75
2022/07/15 10:39:13;;;;;;;6.38;1.30;;;;;;;-146.64;61.07;37492.19;5073816;28;20082;-74
2022/07/15 10:41:58;;;;;;;3.67;0.98;;;;;;;-146.64;60.88;37398.06;5058634;28;20039;-75
2022/07/15 10:44:25;;;;;;;4.20;1.05;;;;;;;-146.64;60.14;37303.97;5064206;28;20112;-75
2022/07/15 10:47:12;;;;;;;3.42;1.30;;;;;;;-146.64;59.92;37344.91;5053071;28;20060;-74
2022/07/15 10:49:41;;;;;;;3.33;1.30;;;;;;;-146.64;59.39;37115.78;5074029;28;20033;-75
2022/07/15 10:52:12;;;;;;;4.85;1.10;;;;;;;-146.64;58.49;36958.31;5054546;28;20115;-75
2022/07/15 10:54:41;;;;;;;4.00;1.20;;;;;;;-146.64;56.85;36539.03;5053185;28;20024;-75
2022/07/15 10:57:06;;;;;;;4.32;0.88;;;;;;;-146.64;55.51;36751.72;5073879;28;20820;-74
2022/07/15 10:59:37;;;;;;;5.67;1.10;;;;;;;-146.64;55.61;37152.63;5061468;28;20039;-72
2022/07/15 11:02:03;;;;;;;5.50;0.95;;;;;;;-146.64;54.36;36907.16;5047434;28;20029;-75
2022/07/15 11:04:30;;;;;;;2.90;0.88;;;;;;;-146.64;56.03;36943.97;5049718;28;20035;-74
2022/07/15 11:07:02;;;;;;;5.03;1.40;;;;;;;-146.64;55.32;37091.25;5050214;28;20083;-75
2022/07/15 11:09:47;;;;;;;3.38;1.30;;;;;;;-146.64;55.50;36890.81;5041870;28;20028;-75
2022/07/15 11:12:37;;;;;;;3.75;1.20;;;;;;;-146.64;54.24;36706.72;5031042;28;20063;-75
2022/07/15 11:15:11;;;;;;;4.43;1.40;;;;;;;-146.64;55.00;36931.72;5050619;28;20037;-75
2022/07/15 11:17:36;;;;;;;3.08;1.30;;;;;;;-146.64;53.84;36588.09;5047895;28;20058;-75
2022/07/15 11:20:11;;;;;;;1.90;0.90;;;;;;;-146.64;57.28;36870.34;5060414;28;20119;-75